Marianne — VRFM5 — position and weather

sailwx.info

Track history (hours):
 
Tides and Currents Weather Stations Pressure Air Temp Water Temp Dewpoint Dewpoint Depression Visibility Wind Speed Wind Dir Waves Ship Positions

Marianne

Last reported at 2017-Mar-27 14:33 UTC. Time now 2017-Mar-27 14:33 UTC.
Position N 51°16' E 004°15'.

Length 97 m; draft 5.5 m.

Type: Ship (hazmat cat B). MMSI: 477560836.

Date/timePositionNaut miles runAvg speedWind from/ knotsBaromVisibWave heightAir tempDewpointWater temp
2017-Mar-27 14:33N 51°16' E 004°15'0 0.0
2017-Mar-27 13:33N 51°16' E 004°15'0 0.0
2017-Mar-27 12:33N 51°16' E 004°15'0 0.0
2017-Mar-27 11:33N 51°16' E 004°15'0 0.0
2017-Mar-27 10:33N 51°16' E 004°15'0 0.0
2017-Mar-27 09:33N 51°16' E 004°15'0 0.0
2017-Mar-27 08:33N 51°16' E 004°15'0 0.0
2017-Mar-27 07:33N 51°16' E 004°15'0 0.0
2017-Mar-27 06:33N 51°16' E 004°15'0 0.0
2017-Mar-27 05:33N 51°16' E 004°15'0 0.0
2017-Mar-27 04:33N 51°16' E 004°15'0 0.0
2017-Mar-27 03:33N 51°16' E 004°15'0 0.0
2017-Mar-27 02:33N 51°16' E 004°15'0 0.0
2017-Mar-27 01:33N 51°16' E 004°15'0 0.0
2017-Mar-27 00:33N 51°16' E 004°15'0 0.4
2017-Mar-26 23:33N 51°16' E 004°15'0 0.5
2017-Mar-26 22:33N 51°17' E 004°15'2 1.9
2017-Mar-26 21:33N 51°18' E 004°16'7 7.1
2017-Mar-26 20:33N 51°22' E 004°07'8 6.9
2017-Mar-26 19:23N 51°21' E 003°54'7 9.0
2017-Mar-26 18:33N 51°24' E 003°42'8 7.7
2017-Mar-26 17:32N 51°27' E 003°31'1010.1
2017-Mar-26 16:33N 51°36' E 003°23'1110.7
2017-Mar-26 15:34N 51°45' E 003°14'1311.7
2017-Mar-26 14:26N 51°57' E 003°19'1011.7
2017-Mar-26 13:33N 52°08' E 003°22'1211.4
2017-Mar-26 12:28N 52°20' E 003°25'1212.4
2017-Mar-26 11:30N 52°32' E 003°29'1213.0
2017-Mar-26 10:33N 52°43' E 003°38'1414.0
2017-Mar-26 09:33N 52°53' E 003°52'1413.8
2017-Mar-26 08:33N 53°03' E 004°10'1313.0
2017-Mar-26 07:33N 53°12' E 004°25'1312.9
2017-Mar-26 06:33N 53°24' E 004°32'1212.3
2017-Mar-26 05:33N 53°36' E 004°39'1412.7
2017-Mar-26 04:28N 53°48' E 004°48'1413.0
2017-Mar-26 03:22N 54°02' E 004°57'30612.2
2017-Mar-25 02:22N 59°06' E 004°02'911.3
2017-Mar-25 01:33N 59°15' E 004°02'1211.7
2017-Mar-25 00:30N 59°27' E 004°02'71 9.9
2017-Mar-24 17:17N 60°38' E 004°21'5 7.3
2017-Mar-24 16:33N 60°41' E 004°29'7 6.6
2017-Mar-24 15:33N 60°45' E 004°41'7 6.7
2017-Mar-24 14:33N 60°51' E 004°47'7 7.2
2017-Mar-24 13:33N 60°49' E 005°01'0 0.0
2017-Mar-24 12:31N 60°49' E 005°01'0 0.0
2017-Mar-24 11:31N 60°49' E 005°01'0 0.0
2017-Mar-24 10:31N 60°49' E 005°01'0 0.0
2017-Mar-24 09:31N 60°49' E 005°01'0 0.0
2017-Mar-24 08:31N 60°49' E 005°01'0 0.0
2017-Mar-24 07:31N 60°49' E 005°01'0 0.0
2017-Mar-24 06:32N 60°49' E 005°01'0 0.0
2017-Mar-24 05:32N 60°49' E 005°01'0 0.0
2017-Mar-24 04:32N 60°49' E 005°01'0 0.0
2017-Mar-24 03:32N 60°49' E 005°01'0 0.0
2017-Mar-24 02:32N 60°49' E 005°01'0 0.0
2017-Mar-24 01:32N 60°49' E 005°01'0 0.0
2017-Mar-24 00:32N 60°49' E 005°01'0 0.0
2017-Mar-23 23:32N 60°49' E 005°01'0 0.0
2017-Mar-23 22:32N 60°49' E 005°01'0 0.0
2017-Mar-23 21:32N 60°49' E 005°01'0 0.0
2017-Mar-23 20:32N 60°49' E 005°01'0 0.0
2017-Mar-23 19:32N 60°49' E 005°01'0 0.0
2017-Mar-23 18:31N 60°49' E 005°01'0 0.0
2017-Mar-23 17:31N 60°49' E 005°01'0 0.0
2017-Mar-23 16:31N 60°49' E 005°01'5 3.9
2017-Mar-23 15:10N 60°51' E 004°51'5 8.4
2017-Mar-23 14:33N 60°46' E 004°46'10 9.6
2017-Mar-23 13:33N 60°42' E 004°28'24911.9
2017-Mar-22 16:33N 58°43' W 002°45'1414.5
2017-Mar-22 15:33N 58°43' W 003°13'1312.9
2017-Mar-22 14:33N 58°43' W 003°38'1212.3
2017-Mar-22 13:33N 58°43' W 004°01'4110.0
2017-Mar-22 09:27N 58°32' W 005°18'17611.0
2017-Mar-21 17:28N 55°43' W 006°53'910.1
2017-Mar-21 16:33N 55°35' W 006°45'9 8.8
2017-Mar-21 15:33N 55°29' W 006°35'9 8.8
2017-Mar-21 14:32N 55°27' W 006°19'8 8.1
2017-Mar-21 13:32N 55°25' W 006°05'9 8.8
2017-Mar-21 12:33N 55°18' W 005°55'1110.9
2017-Mar-21 11:30N 55°09' W 005°43'1112.0
2017-Mar-21 10:33N 54°60' W 005°32'1212.2
2017-Mar-21 09:33N 54°50' W 005°19'1312.7
2017-Mar-21 08:33N 54°40' W 005°07'1313.3
2017-Mar-21 07:33N 54°26' W 005°07'1312.8
2017-Mar-21 06:33N 54°13' W 005°07'  
Track history (hours):
 
Tides and Currents Weather Stations Pressure Air Temp Water Temp Dewpoint Dewpoint Depression Visibility Wind Speed Wind Dir Waves Ship Positions

Marianne

Last reported at 2017-Mar-27 14:33 UTC. Time now 2017-Mar-27 14:33 UTC.
Position N 51°16' E 004°15'.

Length 97 m; draft 5.5 m.

Type: Ship (hazmat cat B). MMSI: 477560836.

Date/timePositionNaut miles runAvg speedWind from/ knotsBaromVisibWave heightAir tempDewpointWater temp
2017-Mar-27 14:33N 51°16' E 004°15'0 0.0
2017-Mar-27 13:33N 51°16' E 004°15'0 0.0
2017-Mar-27 12:33N 51°16' E 004°15'0 0.0
2017-Mar-27 11:33N 51°16' E 004°15'0 0.0
2017-Mar-27 10:33N 51°16' E 004°15'0 0.0
2017-Mar-27 09:33N 51°16' E 004°15'0 0.0
2017-Mar-27 08:33N 51°16' E 004°15'0 0.0
2017-Mar-27 07:33N 51°16' E 004°15'0 0.0
2017-Mar-27 06:33N 51°16' E 004°15'0 0.0
2017-Mar-27 05:33N 51°16' E 004°15'0 0.0
2017-Mar-27 04:33N 51°16' E 004°15'0 0.0
2017-Mar-27 03:33N 51°16' E 004°15'0 0.0
2017-Mar-27 02:33N 51°16' E 004°15'0 0.0
2017-Mar-27 01:33N 51°16' E 004°15'0 0.0
2017-Mar-27 00:33N 51°16' E 004°15'0 0.4
2017-Mar-26 23:33N 51°16' E 004°15'0 0.5
2017-Mar-26 22:33N 51°17' E 004°15'2 1.9
2017-Mar-26 21:33N 51°18' E 004°16'7 7.1
2017-Mar-26 20:33N 51°22' E 004°07'8 6.9
2017-Mar-26 19:23N 51°21' E 003°54'7 9.0
2017-Mar-26 18:33N 51°24' E 003°42'8 7.7
2017-Mar-26 17:32N 51°27' E 003°31'1010.1
2017-Mar-26 16:33N 51°36' E 003°23'1110.7
2017-Mar-26 15:34N 51°45' E 003°14'1311.7
2017-Mar-26 14:26N 51°57' E 003°19'1011.7
2017-Mar-26 13:33N 52°08' E 003°22'1211.4
2017-Mar-26 12:28N 52°20' E 003°25'1212.4
2017-Mar-26 11:30N 52°32' E 003°29'1213.0
2017-Mar-26 10:33N 52°43' E 003°38'1414.0
2017-Mar-26 09:33N 52°53' E 003°52'1413.8
2017-Mar-26 08:33N 53°03' E 004°10'1313.0
2017-Mar-26 07:33N 53°12' E 004°25'1312.9
2017-Mar-26 06:33N 53°24' E 004°32'1212.3
2017-Mar-26 05:33N 53°36' E 004°39'1412.7
2017-Mar-26 04:28N 53°48' E 004°48'1413.0
2017-Mar-26 03:22N 54°02' E 004°57'30612.2
2017-Mar-25 02:22N 59°06' E 004°02'911.3
2017-Mar-25 01:33N 59°15' E 004°02'1211.7
2017-Mar-25 00:30N 59°27' E 004°02'71 9.9
2017-Mar-24 17:17N 60°38' E 004°21'5 7.3
2017-Mar-24 16:33N 60°41' E 004°29'7 6.6
2017-Mar-24 15:33N 60°45' E 004°41'7 6.7
2017-Mar-24 14:33N 60°51' E 004°47'7 7.2
2017-Mar-24 13:33N 60°49' E 005°01'0 0.0
2017-Mar-24 12:31N 60°49' E 005°01'0 0.0
2017-Mar-24 11:31N 60°49' E 005°01'0 0.0
2017-Mar-24 10:31N 60°49' E 005°01'0 0.0
2017-Mar-24 09:31N 60°49' E 005°01'0 0.0
2017-Mar-24 08:31N 60°49' E 005°01'0 0.0
2017-Mar-24 07:31N 60°49' E 005°01'0 0.0
2017-Mar-24 06:32N 60°49' E 005°01'0 0.0
2017-Mar-24 05:32N 60°49' E 005°01'0 0.0
2017-Mar-24 04:32N 60°49' E 005°01'0 0.0
2017-Mar-24 03:32N 60°49' E 005°01'0 0.0
2017-Mar-24 02:32N 60°49' E 005°01'0 0.0
2017-Mar-24 01:32N 60°49' E 005°01'0 0.0
2017-Mar-24 00:32N 60°49' E 005°01'0 0.0
2017-Mar-23 23:32N 60°49' E 005°01'0 0.0
2017-Mar-23 22:32N 60°49' E 005°01'0 0.0
2017-Mar-23 21:32N 60°49' E 005°01'0 0.0
2017-Mar-23 20:32N 60°49' E 005°01'0 0.0
2017-Mar-23 19:32N 60°49' E 005°01'0 0.0
2017-Mar-23 18:31N 60°49' E 005°01'0 0.0
2017-Mar-23 17:31N 60°49' E 005°01'0 0.0
2017-Mar-23 16:31N 60°49' E 005°01'5 3.9
2017-Mar-23 15:10N 60°51' E 004°51'5 8.4
2017-Mar-23 14:33N 60°46' E 004°46'10 9.6
2017-Mar-23 13:33N 60°42' E 004°28'24911.9
2017-Mar-22 16:33N 58°43' W 002°45'1414.5
2017-Mar-22 15:33N 58°43' W 003°13'1312.9
2017-Mar-22 14:33N 58°43' W 003°38'1212.3
2017-Mar-22 13:33N 58°43' W 004°01'4110.0
2017-Mar-22 09:27N 58°32' W 005°18'17611.0
2017-Mar-21 17:28N 55°43' W 006°53'910.1
2017-Mar-21 16:33N 55°35' W 006°45'9 8.8
2017-Mar-21 15:33N 55°29' W 006°35'9 8.8
2017-Mar-21 14:32N 55°27' W 006°19'8 8.1
2017-Mar-21 13:32N 55°25' W 006°05'9 8.8
2017-Mar-21 12:33N 55°18' W 005°55'1110.9
2017-Mar-21 11:30N 55°09' W 005°43'1112.0
2017-Mar-21 10:33N 54°60' W 005°32'1212.2
2017-Mar-21 09:33N 54°50' W 005°19'1312.7
2017-Mar-21 08:33N 54°40' W 005°07'1313.3
2017-Mar-21 07:33N 54°26' W 005°07'1312.8
2017-Mar-21 06:33N 54°13' W 005°07'  

Dump ship's entire track history